createdAt,value
2022-08-31T00:00:11.398Z,77.88
2022-08-31T00:02:57.659Z,78.11
2022-08-31T00:05:24.233Z,78.28
2022-08-31T00:07:51.674Z,78.44
2022-08-31T00:10:20.206Z,78.49
2022-08-31T00:12:58.407Z,78.34
2022-08-31T00:15:25.462Z,78.35
2022-08-31T00:17:52.911Z,78.66
2022-08-31T00:20:33.893Z,77.78
2022-08-31T00:23:05.371Z,78.01
2022-08-31T00:25:32.194Z,78.03
2022-08-31T00:27:58.698Z,78.20
2022-08-31T00:30:25.369Z,78.71
2022-08-31T00:32:52.249Z,78.35
2022-08-31T00:35:18.990Z,78.84
2022-08-31T00:37:45.339Z,78.89
2022-08-31T00:40:12.509Z,78.87
2022-08-31T00:42:39.295Z,78.83
2022-08-31T00:45:08.639Z,79.13
2022-08-31T00:47:35.633Z,79.20
2022-08-31T00:50:05.406Z,78.59
2022-08-31T00:52:37.651Z,78.59
2022-08-31T00:55:40.811Z,78.77
2022-08-31T00:58:10.954Z,78.53
2022-08-31T01:00:38.675Z,78.87
2022-08-31T01:03:07.919Z,79.26
2022-08-31T01:05:35.392Z,79.73
2022-08-31T01:08:03.865Z,79.84
2022-08-31T01:10:34.220Z,79.97
2022-08-31T01:13:01.453Z,80.31
2022-08-31T01:15:29.466Z,79.59
2022-08-31T01:17:58.815Z,80.04
2022-08-31T01:20:49.315Z,80.70
2022-08-31T01:23:17.817Z,79.62
2022-08-31T01:25:47.463Z,80.12
2022-08-31T01:28:14.137Z,79.83
2022-08-31T01:30:41.820Z,79.92
2022-08-31T01:33:09.198Z,79.77
2022-08-31T01:35:36.192Z,79.82
2022-08-31T01:38:04.645Z,80.05
2022-08-31T01:40:56.707Z,79.66
2022-08-31T01:43:24.067Z,79.66
2022-08-31T01:45:51.366Z,80.44
2022-08-31T01:48:17.916Z,80.36
2022-08-31T01:50:44.626Z,80.16
2022-08-31T01:53:11.698Z,79.98
2022-08-31T01:55:38.479Z,79.99
2022-08-31T01:58:05.757Z,79.64
2022-08-31T02:00:32.375Z,79.83
2022-08-31T02:03:02.518Z,79.49
2022-08-31T02:05:28.953Z,79.83
2022-08-31T02:07:56.346Z,79.44
2022-08-31T02:10:23.272Z,79.26
2022-08-31T02:12:49.996Z,78.77
2022-08-31T02:15:16.644Z,79.04
2022-08-31T02:17:43.051Z,79.04
2022-08-31T02:20:12.330Z,78.63
2022-08-31T02:22:39.215Z,79.06
2022-08-31T02:25:06.543Z,78.94
2022-08-31T02:27:36.884Z,79.07
2022-08-31T02:30:10.753Z,79.12
2022-08-31T02:32:37.234Z,78.47
2022-08-31T02:35:05.219Z,78.77
2022-08-31T02:37:31.910Z,78.46
2022-08-31T02:39:58.957Z,78.30
2022-08-31T02:42:28.082Z,78.14
2022-08-31T02:44:57.549Z,79.13
2022-08-31T02:47:23.914Z,79.01
2022-08-31T02:49:50.242Z,79.15
2022-08-31T02:52:16.621Z,79.07
2022-08-31T02:54:42.976Z,79.71
2022-08-31T02:57:09.347Z,79.53
2022-08-31T02:59:35.759Z,79.70
2022-08-31T03:02:02.247Z,79.98
2022-08-31T03:04:29.822Z,79.96
2022-08-31T03:06:57.074Z,80.32
2022-08-31T03:09:23.750Z,79.94
2022-08-31T03:11:50.295Z,79.91
2022-08-31T03:14:16.695Z,80.13
2022-08-31T03:16:43.269Z,79.54
2022-08-31T03:19:09.770Z,79.32
2022-08-31T03:21:36.275Z,79.83
2022-08-31T03:24:02.642Z,79.62
2022-08-31T03:26:28.987Z,79.59
2022-08-31T03:28:55.885Z,79.86
2022-08-31T03:31:23.666Z,80.02
2022-08-31T03:33:50.327Z,79.68
2022-08-31T03:36:17.305Z,79.18
2022-08-31T03:38:43.744Z,79.18
2022-08-31T03:41:12.087Z,79.24
2022-08-31T03:43:38.419Z,78.66
2022-08-31T03:46:12.045Z,78.45
2022-08-31T03:48:39.091Z,79.12
2022-08-31T03:51:06.835Z,79.24
2022-08-31T03:53:33.247Z,78.85
2022-08-31T03:56:03.891Z,79.26
2022-08-31T03:58:32.102Z,79.25
2022-08-31T04:00:58.445Z,79.15
2022-08-31T04:03:24.831Z,78.97
2022-08-31T04:05:51.234Z,78.91
2022-08-31T04:08:19.725Z,79.23
2022-08-31T04:10:49.851Z,79.60
2022-08-31T04:13:16.277Z,79.74
2022-08-31T04:15:42.760Z,79.65
2022-08-31T04:18:09.211Z,79.19
2022-08-31T04:20:37.402Z,79.23
2022-08-31T04:23:04.542Z,79.12
2022-08-31T04:25:31.183Z,79.49
2022-08-31T04:27:58.090Z,78.94
2022-08-31T04:30:24.907Z,79.57
2022-08-31T04:32:53.111Z,79.48
2022-08-31T04:35:19.547Z,79.03
2022-08-31T04:37:47.073Z,78.93
2022-08-31T04:40:25.564Z,78.96
2022-08-31T04:42:52.755Z,79.69
2022-08-31T04:45:19.177Z,79.77
2022-08-31T04:47:45.639Z,79.85
2022-08-31T04:50:14.370Z,79.32
2022-08-31T04:52:42.112Z,79.40
2022-08-31T04:55:11.205Z,78.74
2022-08-31T04:57:38.616Z,78.77
2022-08-31T05:00:05.679Z,78.77
2022-08-31T05:02:35.693Z,78.93
2022-08-31T05:05:03.574Z,78.85
2022-08-31T05:07:30.118Z,78.44
2022-08-31T05:09:56.472Z,78.33
2022-08-31T05:12:22.872Z,78.43
2022-08-31T05:14:49.378Z,78.36
2022-08-31T05:17:17.020Z,77.86
2022-08-31T05:19:43.936Z,77.77
2022-08-31T05:22:10.394Z,77.57
2022-08-31T05:24:38.777Z,77.37
2022-08-31T05:27:05.450Z,76.53
2022-08-31T05:29:31.860Z,76.96
2022-08-31T05:31:58.184Z,77.12
2022-08-31T05:34:24.935Z,76.35
2022-08-31T05:36:55.858Z,76.77
2022-08-31T05:39:22.869Z,75.56
2022-08-31T05:41:49.664Z,75.88
2022-08-31T05:44:16.809Z,76.17
2022-08-31T05:46:43.718Z,76.06
2022-08-31T05:49:11.090Z,76.02
2022-08-31T05:51:38.905Z,75.71
2022-08-31T05:54:06.529Z,75.75
2022-08-31T05:56:33.022Z,74.46
2022-08-31T05:58:59.419Z,74.67
2022-08-31T06:01:30.471Z,74.58
2022-08-31T06:03:58.192Z,74.78
2022-08-31T06:06:25.511Z,75.21
2022-08-31T06:08:52.609Z,73.55
2022-08-31T06:11:21.926Z,73.44
2022-08-31T06:13:53.327Z,73.19
2022-08-31T06:16:20.531Z,73.16
2022-08-31T06:18:50.563Z,72.17
2022-08-31T06:21:20.899Z,71.45
2022-08-31T06:23:49.987Z,71.41
2022-08-31T06:26:19.594Z,71.01
2022-08-31T06:28:51.015Z,70.76
2022-08-31T06:31:27.710Z,69.28
2022-08-31T06:33:55.827Z,68.58
2022-08-31T06:36:24.470Z,67.85
2022-08-31T06:38:51.566Z,68.18
2022-08-31T06:41:22.040Z,66.90
2022-08-31T06:43:48.990Z,64.70
2022-08-31T06:46:17.476Z,64.52
2022-08-31T06:48:44.907Z,65.83
2022-08-31T06:51:11.940Z,63.38
2022-08-31T06:53:40.967Z,61.39
2022-08-31T06:56:16.451Z,58.52
2022-08-31T06:58:53.546Z,55.26
2022-08-31T07:01:35.332Z,52.11
2022-08-31T07:04:05.442Z,49.52
2022-08-31T07:06:38.982Z,47.63
2022-08-31T07:09:07.797Z,47.35
2022-08-31T07:11:39.958Z,46.65
2022-08-31T07:14:12.531Z,46.62
2022-08-31T07:16:39.534Z,47.41
2022-08-31T07:19:07.004Z,46.24
2022-08-31T07:21:42.431Z,47.18
2022-08-31T07:24:10.418Z,46.92
2022-08-31T07:26:46.295Z,45.31
2022-08-31T07:29:14.901Z,46.58
2022-08-31T07:31:48.404Z,45.87
2022-08-31T07:34:21.023Z,45.19
2022-08-31T07:37:06.837Z,44.02
2022-08-31T07:39:52.182Z,44.60
2022-08-31T07:42:23.872Z,45.49
2022-08-31T07:44:53.580Z,44.57
2022-08-31T07:47:22.087Z,44.47
2022-08-31T07:49:52.491Z,46.29
2022-08-31T07:52:23.674Z,46.91
2022-08-31T07:54:52.427Z,46.94
2022-08-31T07:57:21.908Z,43.98
2022-08-31T07:59:54.572Z,41.63
2022-08-31T08:02:21.309Z,42.15
2022-08-31T08:04:53.807Z,42.32
2022-08-31T08:07:21.434Z,41.25
2022-08-31T08:09:47.965Z,41.27
2022-08-31T08:12:14.994Z,41.49
2022-08-31T08:14:41.415Z,40.34
2022-08-31T08:17:08.538Z,39.94
2022-08-31T08:19:35.018Z,39.63
2022-08-31T08:22:03.347Z,39.41
2022-08-31T08:24:31.603Z,39.92
2022-08-31T08:26:58.717Z,40.29
2022-08-31T08:29:26.586Z,39.27
2022-08-31T08:31:54.222Z,38.99
2022-08-31T08:34:29.560Z,39.98
2022-08-31T08:36:58.730Z,38.91
2022-08-31T08:39:25.220Z,38.75
2022-08-31T08:41:54.259Z,37.97
2022-08-31T08:44:23.579Z,38.01
2022-08-31T08:46:56.301Z,40.53
2022-08-31T08:49:33.272Z,39.00
2022-08-31T08:52:03.630Z,38.84
2022-08-31T08:54:38.670Z,37.78
2022-08-31T08:57:14.932Z,36.81
2022-08-31T08:59:43.676Z,37.14
2022-08-31T09:02:23.104Z,38.31
2022-08-31T09:05:08.963Z,37.85
2022-08-31T09:07:52.142Z,36.66
2022-08-31T09:10:31.035Z,36.83
2022-08-31T09:13:11.974Z,36.59
2022-08-31T09:15:49.449Z,35.81
2022-08-31T09:18:41.207Z,37.39
2022-08-31T09:21:25.385Z,36.79
2022-08-31T09:24:07.233Z,35.87
2022-08-31T09:27:17.803Z,36.40
2022-08-31T09:29:54.211Z,35.38
2022-08-31T09:32:34.806Z,36.31
2022-08-31T09:35:23.661Z,36.53
2022-08-31T09:37:59.546Z,36.47
2022-08-31T09:40:42.271Z,34.98
2022-08-31T09:43:23.764Z,34.21
2022-08-31T09:46:07.430Z,35.22
2022-08-31T09:48:49.702Z,34.49
2022-08-31T09:51:28.111Z,34.01
2022-08-31T09:54:36.707Z,34.81
2022-08-31T09:57:06.302Z,32.36
2022-08-31T09:59:46.183Z,33.53
2022-08-31T10:02:22.610Z,32.62
2022-08-31T10:04:56.556Z,32.10
2022-08-31T10:07:29.794Z,31.39
2022-08-31T10:10:02.835Z,31.19
2022-08-31T10:12:44.935Z,31.00
2022-08-31T10:15:35.764Z,32.21
2022-08-31T10:18:13.731Z,31.32
2022-08-31T10:20:48.210Z,31.80
2022-08-31T10:23:34.635Z,29.92
2022-08-31T10:26:12.988Z,29.33
2022-08-31T10:28:54.054Z,31.23
2022-08-31T10:31:48.114Z,30.66
2022-08-31T10:35:00.151Z,29.74
2022-08-31T10:37:36.578Z,29.93
2022-08-31T10:40:34.799Z,29.17
2022-08-31T10:43:17.640Z,28.09
2022-08-31T10:45:48.921Z,28.74
2022-08-31T10:48:24.745Z,28.65
2022-08-31T10:51:22.192Z,28.44
2022-08-31T10:54:28.598Z,27.37
2022-08-31T10:57:21.488Z,27.62
2022-08-31T11:00:09.024Z,27.61
2022-08-31T11:02:42.938Z,26.58
2022-08-31T11:05:29.938Z,28.60
2022-08-31T11:08:24.347Z,27.43
2022-08-31T11:10:54.139Z,26.94
2022-08-31T11:13:51.133Z,27.50
2022-08-31T11:16:43.157Z,26.00
2022-08-31T11:19:15.875Z,25.91
2022-08-31T11:22:19.848Z,27.69
2022-08-31T11:25:07.659Z,25.13
2022-08-31T11:27:50.979Z,24.56
2022-08-31T11:30:26.618Z,27.64
2022-08-31T11:33:03.045Z,29.00
2022-08-31T11:36:01.519Z,29.13
2022-08-31T11:38:54.549Z,26.78
2022-08-31T11:41:49.369Z,25.91
2022-08-31T11:44:39.516Z,27.72
2022-08-31T11:47:14.406Z,29.26
2022-08-31T11:49:46.950Z,29.56
2022-08-31T11:52:29.053Z,27.29
2022-08-31T11:55:07.928Z,29.88
2022-08-31T11:58:06.203Z,28.54
2022-08-31T12:00:50.968Z,28.96
2022-08-31T12:03:33.374Z,28.61
2022-08-31T12:05:59.759Z,26.78
2022-08-31T12:08:32.552Z,26.23
2022-08-31T12:11:16.354Z,25.94
2022-08-31T12:14:01.128Z,26.51
2022-08-31T12:16:50.446Z,27.93
2022-08-31T12:20:01.609Z,28.19
2022-08-31T12:23:03.418Z,27.85
2022-08-31T12:25:54.407Z,26.95
2022-08-31T12:28:48.782Z,25.79
2022-08-31T12:31:18.298Z,25.00
2022-08-31T12:33:57.218Z,24.41
2022-08-31T12:36:31.566Z,24.12
2022-08-31T12:39:21.806Z,25.43
2022-08-31T12:41:54.246Z,24.73
2022-08-31T12:44:28.966Z,26.13
2022-08-31T12:47:05.598Z,29.80
2022-08-31T12:49:53.949Z,31.24
2022-08-31T12:52:35.109Z,32.88
2022-08-31T12:55:37.472Z,34.04
2022-08-31T12:58:03.762Z,35.56
2022-08-31T13:00:33.351Z,36.20
2022-08-31T13:03:06.197Z,37.06
2022-08-31T13:05:35.439Z,38.74
2022-08-31T13:08:19.543Z,37.84
2022-08-31T13:10:45.950Z,38.33
2022-08-31T13:13:25.531Z,38.83
2022-08-31T13:15:59.363Z,39.32
2022-08-31T13:18:28.605Z,41.86
2022-08-31T13:20:56.662Z,39.31
2022-08-31T13:23:29.818Z,38.71
2022-08-31T13:26:24.930Z,40.61
2022-08-31T13:28:57.186Z,39.93
2022-08-31T13:31:35.340Z,41.18
2022-08-31T13:34:07.278Z,40.35
2022-08-31T13:36:39.650Z,40.43
2022-08-31T13:39:18.767Z,40.58
2022-08-31T13:42:11.343Z,40.70
2022-08-31T13:44:44.012Z,40.63
2022-08-31T13:47:23.045Z,40.45
2022-08-31T13:49:53.063Z,41.65
2022-08-31T13:52:29.194Z,40.48
2022-08-31T13:55:08.810Z,41.67
2022-08-31T13:57:38.125Z,41.99
2022-08-31T14:00:32.344Z,40.87
2022-08-31T14:03:32.059Z,40.54
2022-08-31T14:06:24.689Z,41.36
2022-08-31T14:08:55.195Z,41.86
2022-08-31T14:11:28.913Z,40.92
2022-08-31T14:14:05.030Z,41.22
2022-08-31T14:16:51.886Z,41.97
2022-08-31T14:19:45.455Z,42.33
2022-08-31T14:22:33.013Z,42.83
2022-08-31T14:25:00.779Z,41.37
2022-08-31T14:27:28.536Z,42.01
2022-08-31T14:29:55.069Z,40.94
2022-08-31T14:32:22.598Z,44.99
2022-08-31T14:34:49.187Z,42.88
2022-08-31T14:37:22.456Z,42.19
2022-08-31T14:40:07.440Z,42.89
2022-08-31T14:42:37.121Z,44.13
2022-08-31T14:45:11.047Z,42.67
2022-08-31T14:47:42.442Z,43.10
2022-08-31T14:50:11.296Z,42.70
2022-08-31T14:52:44.871Z,42.36
2022-08-31T14:55:13.495Z,43.49
2022-08-31T14:57:43.369Z,42.00
2022-08-31T15:00:22.943Z,41.57
2022-08-31T15:02:53.598Z,42.73
2022-08-31T15:05:23.811Z,43.02
2022-08-31T15:07:52.879Z,42.28
2022-08-31T15:10:21.857Z,44.38
2022-08-31T15:12:48.743Z,43.59
2022-08-31T15:15:20.337Z,43.41
2022-08-31T15:17:50.195Z,42.46
2022-08-31T15:20:21.396Z,41.45
2022-08-31T15:22:48.841Z,42.59
2022-08-31T15:25:16.956Z,42.10
2022-08-31T15:27:44.327Z,42.16
2022-08-31T15:30:14.494Z,42.88
2022-08-31T15:32:45.168Z,41.50
2022-08-31T15:35:17.750Z,42.41
2022-08-31T15:37:56.220Z,42.64
2022-08-31T15:40:28.991Z,43.56
2022-08-31T15:42:55.832Z,42.58
2022-08-31T15:45:23.188Z,43.90
2022-08-31T15:48:08.323Z,42.39
2022-08-31T15:50:35.782Z,43.02
2022-08-31T15:53:09.416Z,43.61
2022-08-31T15:55:40.169Z,43.32
2022-08-31T15:58:08.311Z,44.13
2022-08-31T16:00:36.149Z,44.39
2022-08-31T16:03:03.809Z,42.77
2022-08-31T16:05:35.520Z,42.25
2022-08-31T16:08:02.263Z,43.42
2022-08-31T16:10:30.773Z,42.03
2022-08-31T16:12:57.099Z,42.12
2022-08-31T16:15:25.083Z,43.27
2022-08-31T16:17:52.351Z,44.07
2022-08-31T16:20:18.819Z,43.46
2022-08-31T16:22:45.339Z,42.54
2022-08-31T16:25:13.980Z,41.96
2022-08-31T16:27:41.431Z,43.11
2022-08-31T16:30:10.125Z,43.07
2022-08-31T16:32:36.564Z,42.57
2022-08-31T16:35:05.453Z,42.87
2022-08-31T16:37:32.832Z,43.56
2022-08-31T16:39:59.254Z,43.09
2022-08-31T16:42:25.763Z,42.60
2022-08-31T16:44:52.229Z,42.70
2022-08-31T16:47:19.122Z,43.34
2022-08-31T16:49:46.705Z,42.34
2022-08-31T16:52:16.699Z,43.80
2022-08-31T16:54:47.874Z,43.49
2022-08-31T16:57:17.687Z,43.60
2022-08-31T16:59:44.538Z,43.38
2022-08-31T17:02:13.405Z,42.45
2022-08-31T17:04:52.203Z,42.96
2022-08-31T17:07:20.909Z,43.35
2022-08-31T17:09:47.791Z,43.61
2022-08-31T17:12:17.059Z,42.61
2022-08-31T17:14:48.056Z,44.37
2022-08-31T17:17:17.431Z,45.47
2022-08-31T17:19:45.492Z,46.13
2022-08-31T17:22:21.457Z,44.77
2022-08-31T17:24:50.626Z,44.29
2022-08-31T17:27:20.653Z,44.54
2022-08-31T17:29:49.741Z,45.06
2022-08-31T17:32:19.723Z,45.99
2022-08-31T17:34:50.049Z,45.24
2022-08-31T17:37:20.064Z,45.57
2022-08-31T17:39:50.516Z,46.47
2022-08-31T17:42:20.803Z,48.82
2022-08-31T17:44:50.662Z,47.31
2022-08-31T17:47:18.373Z,48.17
2022-08-31T17:49:46.704Z,47.87
2022-08-31T17:52:13.509Z,47.33
2022-08-31T17:54:42.915Z,47.03
2022-08-31T17:57:12.684Z,46.75
2022-08-31T17:59:41.802Z,46.83
2022-08-31T18:02:12.586Z,47.00
2022-08-31T18:04:40.510Z,47.78
2022-08-31T18:07:09.012Z,48.78
2022-08-31T18:09:38.658Z,50.61
2022-08-31T18:12:06.216Z,52.06
2022-08-31T18:14:34.786Z,54.14
2022-08-31T18:17:03.836Z,52.31
2022-08-31T18:19:32.277Z,51.58
2022-08-31T18:21:59.274Z,53.99
2022-08-31T18:24:26.349Z,54.89
2022-08-31T18:26:52.806Z,53.17
2022-08-31T18:29:24.315Z,54.06
2022-08-31T18:31:53.729Z,53.34
2022-08-31T18:34:22.848Z,53.83
2022-08-31T18:36:51.346Z,53.88
2022-08-31T18:39:47.838Z,53.36
2022-08-31T18:42:32.418Z,54.16
2022-08-31T18:45:18.308Z,54.27
2022-08-31T18:48:20.863Z,55.66
2022-08-31T18:50:47.946Z,54.38
2022-08-31T18:53:29.082Z,55.29
2022-08-31T18:56:05.701Z,56.93
2022-08-31T18:58:32.075Z,56.82
2022-08-31T19:00:58.926Z,56.58
2022-08-31T19:03:27.444Z,57.93
2022-08-31T19:05:54.237Z,57.34
2022-08-31T19:08:20.586Z,57.07
2022-08-31T19:10:49.161Z,55.96
2022-08-31T19:13:15.858Z,58.49
2022-08-31T19:15:42.259Z,58.60
2022-08-31T19:18:08.752Z,59.20
2022-08-31T19:20:35.426Z,60.09
2022-08-31T19:23:01.942Z,61.42
2022-08-31T19:25:28.307Z,61.21
2022-08-31T19:27:55.661Z,61.99
2022-08-31T19:30:27.874Z,58.90
2022-08-31T19:32:55.993Z,61.42
2022-08-31T19:35:22.372Z,60.93
2022-08-31T19:37:51.602Z,61.58
2022-08-31T19:40:18.421Z,61.13
2022-08-31T19:43:42.774Z,61.72
2022-08-31T19:45:48.511Z,61.12
2022-08-31T19:48:17.213Z,59.46
2022-08-31T19:50:43.822Z,57.94
2022-08-31T19:53:13.506Z,56.94
2022-08-31T19:55:51.603Z,56.39
2022-08-31T19:58:21.950Z,56.90
2022-08-31T20:00:48.611Z,60.40
2022-08-31T20:03:16.127Z,58.36
2022-08-31T20:05:43.172Z,59.19
2022-08-31T20:08:10.310Z,58.15
2022-08-31T20:10:41.562Z,59.84
2022-08-31T20:13:12.153Z,60.36
2022-08-31T20:15:40.835Z,60.24
2022-08-31T20:18:11.046Z,60.14
2022-08-31T20:20:46.082Z,59.76
2022-08-31T20:23:16.425Z,59.33
2022-08-31T20:25:44.890Z,59.76
2022-08-31T20:28:13.597Z,59.88
2022-08-31T20:30:42.049Z,60.31
2022-08-31T20:33:11.193Z,60.07
2022-08-31T20:35:42.453Z,59.98
2022-08-31T20:38:11.903Z,58.97
2022-08-31T20:40:39.159Z,59.15
2022-08-31T20:43:10.679Z,58.86
2022-08-31T20:45:38.550Z,59.98
2022-08-31T20:48:24.169Z,59.88
2022-08-31T20:50:50.707Z,60.02
2022-08-31T20:53:24.851Z,60.75
2022-08-31T20:56:06.224Z,60.95
2022-08-31T20:58:32.831Z,60.40
2022-08-31T21:01:04.600Z,60.89
2022-08-31T21:03:30.954Z,61.26
2022-08-31T21:06:02.021Z,61.69
2022-08-31T21:08:28.535Z,61.45
2022-08-31T21:10:54.930Z,61.76
2022-08-31T21:13:21.436Z,63.03
2022-08-31T21:15:48.018Z,62.43
2022-08-31T21:18:18.906Z,62.81
2022-08-31T21:20:46.093Z,63.38
2022-08-31T21:23:13.394Z,62.94
2022-08-31T21:25:44.933Z,63.97
2022-08-31T21:28:17.170Z,64.16
2022-08-31T21:30:46.551Z,64.50
2022-08-31T21:33:13.010Z,64.98
2022-08-31T21:35:39.362Z,65.84
2022-08-31T21:38:07.683Z,66.03
2022-08-31T21:40:34.263Z,66.39
2022-08-31T21:43:01.390Z,66.75
2022-08-31T21:45:27.718Z,67.28
2022-08-31T21:47:54.128Z,66.86
2022-08-31T21:50:20.531Z,67.49
2022-08-31T21:52:46.884Z,67.51
2022-08-31T21:55:15.659Z,67.38
2022-08-31T21:57:43.215Z,68.38
2022-08-31T22:00:14.097Z,68.73
2022-08-31T22:02:45.182Z,69.06
2022-08-31T22:05:13.194Z,69.04
2022-08-31T22:07:40.042Z,69.55
2022-08-31T22:10:07.350Z,69.86
2022-08-31T22:12:33.768Z,70.25
2022-08-31T22:15:06.534Z,70.57
2022-08-31T22:17:59.291Z,70.70
2022-08-31T22:20:23.692Z,70.98
2022-08-31T22:22:51.276Z,71.14
2022-08-31T22:25:17.766Z,71.90
2022-08-31T22:27:46.647Z,71.84
2022-08-31T22:30:13.563Z,72.63
2022-08-31T22:32:39.899Z,72.32
2022-08-31T22:35:07.191Z,72.56
2022-08-31T22:37:35.194Z,72.86
2022-08-31T22:40:01.617Z,72.73
2022-08-31T22:42:28.030Z,73.61
2022-08-31T22:44:54.373Z,73.53
2022-08-31T22:47:20.733Z,74.11
2022-08-31T22:49:47.070Z,74.50
2022-08-31T22:52:17.201Z,74.71
2022-08-31T22:54:43.792Z,75.34
2022-08-31T22:57:10.349Z,75.64
2022-08-31T22:59:36.712Z,75.81
2022-08-31T23:02:04.319Z,75.61
2022-08-31T23:04:33.637Z,75.85
2022-08-31T23:07:01.285Z,76.27
2022-08-31T23:09:30.729Z,75.65
2022-08-31T23:11:59.762Z,75.91
2022-08-31T23:14:26.599Z,76.13
2022-08-31T23:16:57.766Z,76.50
2022-08-31T23:19:46.644Z,76.64
2022-08-31T23:22:15.141Z,76.85
2022-08-31T23:24:51.543Z,77.33
2022-08-31T23:27:20.686Z,77.29
2022-08-31T23:29:50.358Z,77.89
2022-08-31T23:32:20.271Z,77.73
2022-08-31T23:34:50.508Z,77.81
2022-08-31T23:37:17.732Z,78.19
2022-08-31T23:39:45.763Z,78.47
2022-08-31T23:42:14.085Z,78.75
2022-08-31T23:44:43.156Z,78.33
2022-08-31T23:47:16.893Z,78.93
2022-08-31T23:49:45.499Z,79.00
2022-08-31T23:52:13.250Z,78.87
2022-08-31T23:54:39.808Z,79.73
2022-08-31T23:57:25.653Z,79.46
